createdAt,value
2018-10-20T00:01:33.569Z,22.20
2018-10-20T00:14:40.703Z,22.10
2018-10-20T00:27:47.878Z,22.10
2018-10-20T00:40:55.027Z,22.10
2018-10-20T00:54:02.223Z,22.10
2018-10-20T01:07:09.440Z,22.10
2018-10-20T01:20:16.573Z,22.10
2018-10-20T01:33:23.736Z,22.10
2018-10-20T01:46:31.247Z,22.10
2018-10-20T01:59:38.526Z,22.10
2018-10-20T02:12:45.863Z,22.10
2018-10-20T02:25:52.997Z,22.10
2018-10-20T02:39:00.136Z,22.00
2018-10-20T02:52:07.391Z,22.10
2018-10-20T03:05:14.459Z,22.10
2018-10-20T03:18:21.594Z,22.10
2018-10-20T03:31:28.940Z,22.00
2018-10-20T04:10:41.047Z,22.10
2018-10-20T04:23:48.237Z,22.00
2018-10-20T04:36:55.437Z,22.00
2018-10-20T04:50:02.610Z,22.00
2018-10-20T05:03:10.086Z,22.00
2018-10-20T05:16:17.513Z,22.00
2018-10-20T05:29:24.613Z,22.00
2018-10-20T05:55:34.548Z,21.80
2018-10-20T06:08:41.710Z,21.80
2018-10-20T06:21:48.860Z,21.80
2018-10-20T06:34:56.017Z,21.80
2018-10-20T06:48:03.333Z,21.70
2018-10-20T07:01:10.450Z,21.70
2018-10-20T07:14:17.806Z,21.70
2018-10-20T07:27:24.995Z,21.70
2018-10-20T07:40:32.286Z,21.80
2018-10-20T07:53:39.600Z,21.70
2018-10-20T08:06:46.939Z,21.60
2018-10-20T08:19:54.094Z,21.40
2018-10-20T08:33:01.255Z,21.40
2018-10-20T08:46:08.508Z,21.50
2018-10-20T08:59:15.699Z,21.50
2018-10-20T09:12:22.978Z,21.50
2018-10-20T09:25:32.694Z,21.50
2018-10-20T09:38:40.029Z,21.60
2018-10-20T09:51:47.211Z,21.50
2018-10-20T10:04:54.411Z,21.50
2018-10-20T10:18:01.796Z,21.50
2018-10-20T10:31:09.008Z,21.40
2018-10-20T10:44:16.183Z,21.40
2018-10-20T11:11:14.336Z,21.30
2018-10-20T11:24:21.465Z,21.40
2018-10-20T11:50:31.417Z,21.40
2018-10-20T12:03:38.513Z,21.40
2018-10-20T12:16:45.697Z,21.40
2018-10-20T12:29:53.030Z,21.40
2018-10-20T12:43:00.355Z,21.40
2018-10-20T12:56:07.761Z,21.40
2018-10-20T13:22:23.396Z,21.50
2018-10-20T13:35:30.636Z,21.50
2018-10-20T13:48:37.857Z,21.50
2018-10-20T14:01:45.067Z,21.50
2018-10-20T14:14:52.378Z,21.50
2018-10-20T14:27:59.848Z,21.50
2018-10-20T14:54:58.882Z,21.50
2018-10-20T15:21:09.612Z,21.50
2018-10-20T15:34:16.833Z,21.50
2018-10-20T15:47:24.173Z,21.50
2018-10-20T16:00:31.449Z,21.50
2018-10-20T16:13:38.806Z,21.50
2018-10-20T16:26:46.104Z,21.50
2018-10-20T16:39:53.421Z,21.50
2018-10-20T16:53:00.681Z,21.40
2018-10-20T17:19:15.478Z,21.40
2018-10-20T17:32:22.642Z,21.50
2018-10-20T17:45:29.954Z,21.40
2018-10-20T17:58:37.207Z,21.50
2018-10-20T18:11:44.389Z,21.50
2018-10-20T18:24:51.704Z,21.50
2018-10-20T18:37:58.923Z,21.60
2018-10-20T18:51:06.346Z,21.50
2018-10-20T19:04:13.639Z,21.40
2018-10-20T19:17:20.869Z,21.40
2018-10-20T19:30:28.309Z,21.40
2018-10-20T19:43:35.499Z,21.40
2018-10-20T19:56:42.730Z,21.40
2018-10-20T20:09:49.942Z,21.40
2018-10-20T20:22:57.149Z,21.30
2018-10-20T20:36:04.519Z,21.30
2018-10-20T20:49:11.714Z,21.30
2018-10-20T21:02:19.112Z,21.30
2018-10-20T21:28:29.159Z,21.30
2018-10-20T21:41:36.640Z,21.30
2018-10-20T21:54:43.812Z,21.30
2018-10-20T22:07:51.051Z,21.30
2018-10-20T22:20:58.349Z,21.20
2018-10-20T22:34:05.543Z,21.20
2018-10-20T22:47:12.710Z,21.30
2018-10-20T23:00:19.953Z,21.40
2018-10-20T23:27:17.869Z,21.40
2018-10-20T23:40:25.071Z,21.40
2018-10-20T23:53:32.778Z,21.40
